sensor_id;sensor_type;location;lat;lon;timestamp;P1;durP1;ratioP1;P2;durP2;ratioP2
6651;SDS011;3362;50.892;10.692;2023-04-22T00:00:05;10.43;;;2.75;;
6651;SDS011;3362;50.892;10.692;2023-04-22T00:02:33;9.10;;;3.33;;
6651;SDS011;3362;50.892;10.692;2023-04-22T00:05:01;6.03;;;3.17;;
6651;SDS011;3362;50.892;10.692;2023-04-22T00:07:27;4.25;;;2.65;;
6651;SDS011;3362;50.892;10.692;2023-04-22T00:09:54;5.20;;;3.38;;
6651;SDS011;3362;50.892;10.692;2023-04-22T00:12:21;8.40;;;3.05;;
6651;SDS011;3362;50.892;10.692;2023-04-22T00:14:47;7.60;;;3.08;;
6651;SDS011;3362;50.892;10.692;2023-04-22T00:17:13;6.95;;;2.65;;
6651;SDS011;3362;50.892;10.692;2023-04-22T00:19:40;3.95;;;2.53;;
6651;SDS011;3362;50.892;10.692;2023-04-22T00:22:06;4.43;;;2.65;;
6651;SDS011;3362;50.892;10.692;2023-04-22T00:24:32;7.28;;;2.90;;
6651;SDS011;3362;50.892;10.692;2023-04-22T00:27:00;4.82;;;2.47;;
6651;SDS011;3362;50.892;10.692;2023-04-22T00:29:26;5.90;;;2.95;;
6651;SDS011;3362;50.892;10.692;2023-04-22T00:31:53;3.85;;;2.40;;
6651;SDS011;3362;50.892;10.692;2023-04-22T00:34:19;7.45;;;2.75;;
6651;SDS011;3362;50.892;10.692;2023-04-22T00:36:45;4.10;;;2.83;;
6651;SDS011;3362;50.892;10.692;2023-04-22T00:39:12;4.07;;;3.17;;
6651;SDS011;3362;50.892;10.692;2023-04-22T00:41:38;4.32;;;2.78;;
6651;SDS011;3362;50.892;10.692;2023-04-22T00:44:06;6.97;;;2.45;;
6651;SDS011;3362;50.892;10.692;2023-04-22T00:46:33;4.68;;;2.85;;
6651;SDS011;3362;50.892;10.692;2023-04-22T00:49:00;3.55;;;2.70;;
6651;SDS011;3362;50.892;10.692;2023-04-22T00:51:27;3.63;;;2.78;;
6651;SDS011;3362;50.892;10.692;2023-04-22T00:53:53;3.70;;;2.33;;
6651;SDS011;3362;50.892;10.692;2023-04-22T00:56:19;5.10;;;2.85;;
6651;SDS011;3362;50.892;10.692;2023-04-22T00:58:47;4.60;;;2.33;;
6651;SDS011;3362;50.892;10.692;2023-04-22T01:01:15;4.03;;;2.50;;
6651;SDS011;3362;50.892;10.692;2023-04-22T01:03:41;6.07;;;2.25;;
6651;SDS011;3362;50.892;10.692;2023-04-22T01:06:07;3.95;;;2.55;;
6651;SDS011;3362;50.892;10.692;2023-04-22T01:08:34;3.10;;;2.22;;
6651;SDS011;3362;50.892;10.692;2023-04-22T01:11:00;4.65;;;2.42;;
6651;SDS011;3362;50.892;10.692;2023-04-22T01:13:27;3.60;;;2.42;;
6651;SDS011;3362;50.892;10.692;2023-04-22T01:15:54;4.53;;;3.17;;
6651;SDS011;3362;50.892;10.692;2023-04-22T01:18:22;4.32;;;2.95;;
6651;SDS011;3362;50.892;10.692;2023-04-22T01:20:48;5.57;;;2.30;;
6651;SDS011;3362;50.892;10.692;2023-04-22T01:23:17;5.35;;;2.88;;
6651;SDS011;3362;50.892;10.692;2023-04-22T01:25:44;7.13;;;3.47;;
6651;SDS011;3362;50.892;10.692;2023-04-22T01:28:10;9.07;;;3.17;;
6651;SDS011;3362;50.892;10.692;2023-04-22T01:30:36;8.93;;;3.20;;
6651;SDS011;3362;50.892;10.692;2023-04-22T01:33:03;8.52;;;3.40;;
6651;SDS011;3362;50.892;10.692;2023-04-22T01:35:29;5.57;;;3.38;;
6651;SDS011;3362;50.892;10.692;2023-04-22T01:38:00;9.35;;;3.08;;
6651;SDS011;3362;50.892;10.692;2023-04-22T01:40:28;7.13;;;3.20;;
6651;SDS011;3362;50.892;10.692;2023-04-22T01:42:54;5.00;;;2.95;;
6651;SDS011;3362;50.892;10.692;2023-04-22T01:45:21;6.32;;;2.92;;
6651;SDS011;3362;50.892;10.692;2023-04-22T01:47:47;8.35;;;2.78;;
6651;SDS011;3362;50.892;10.692;2023-04-22T01:50:13;4.85;;;2.40;;
6651;SDS011;3362;50.892;10.692;2023-04-22T01:52:39;4.10;;;2.22;;
6651;SDS011;3362;50.892;10.692;2023-04-22T01:55:06;5.43;;;2.90;;
6651;SDS011;3362;50.892;10.692;2023-04-22T01:57:34;3.33;;;2.10;;
6651;SDS011;3362;50.892;10.692;2023-04-22T02:00:00;4.47;;;2.78;;
6651;SDS011;3362;50.892;10.692;2023-04-22T02:02:26;6.57;;;2.95;;
6651;SDS011;3362;50.892;10.692;2023-04-22T02:04:52;8.55;;;2.92;;
6651;SDS011;3362;50.892;10.692;2023-04-22T02:07:19;5.90;;;3.05;;
6651;SDS011;3362;50.892;10.692;2023-04-22T02:09:45;5.82;;;3.53;;
6651;SDS011;3362;50.892;10.692;2023-04-22T02:12:11;4.90;;;3.40;;
6651;SDS011;3362;50.892;10.692;2023-04-22T02:14:39;5.00;;;2.20;;
6651;SDS011;3362;50.892;10.692;2023-04-22T02:17:05;3.78;;;2.50;;
6651;SDS011;3362;50.892;10.692;2023-04-22T02:19:31;2.63;;;2.00;;
6651;SDS011;3362;50.892;10.692;2023-04-22T02:21:57;3.90;;;2.20;;
6651;SDS011;3362;50.892;10.692;2023-04-22T02:24:24;3.22;;;1.92;;
6651;SDS011;3362;50.892;10.692;2023-04-22T02:26:50;5.53;;;2.10;;
6651;SDS011;3362;50.892;10.692;2023-04-22T02:29:16;6.25;;;2.10;;
6651;SDS011;3362;50.892;10.692;2023-04-22T02:31:44;7.28;;;2.42;;
6651;SDS011;3362;50.892;10.692;2023-04-22T02:34:10;3.92;;;1.83;;
6651;SDS011;3362;50.892;10.692;2023-04-22T02:36:36;5.20;;;1.85;;
6651;SDS011;3362;50.892;10.692;2023-04-22T02:39:03;3.17;;;2.38;;
6651;SDS011;3362;50.892;10.692;2023-04-22T02:41:30;2.40;;;1.77;;
6651;SDS011;3362;50.892;10.692;2023-04-22T02:43:56;9.00;;;2.55;;
6651;SDS011;3362;50.892;10.692;2023-04-22T02:46:22;3.55;;;2.00;;
6651;SDS011;3362;50.892;10.692;2023-04-22T02:48:50;6.88;;;2.33;;
6651;SDS011;3362;50.892;10.692;2023-04-22T02:51:16;2.92;;;2.20;;
6651;SDS011;3362;50.892;10.692;2023-04-22T02:53:42;2.67;;;1.98;;
6651;SDS011;3362;50.892;10.692;2023-04-22T02:56:08;2.63;;;2.17;;
6651;SDS011;3362;50.892;10.692;2023-04-22T02:58:34;3.60;;;2.38;;
6651;SDS011;3362;50.892;10.692;2023-04-22T03:01:01;5.43;;;2.58;;
6651;SDS011;3362;50.892;10.692;2023-04-22T03:03:27;3.42;;;2.03;;
6651;SDS011;3362;50.892;10.692;2023-04-22T03:05:54;6.18;;;2.30;;
6651;SDS011;3362;50.892;10.692;2023-04-22T03:08:21;4.28;;;2.88;;
6651;SDS011;3362;50.892;10.692;2023-04-22T03:10:47;2.40;;;2.17;;
6651;SDS011;3362;50.892;10.692;2023-04-22T03:13:13;6.53;;;2.78;;
6651;SDS011;3362;50.892;10.692;2023-04-22T03:15:39;3.80;;;2.45;;
6651;SDS011;3362;50.892;10.692;2023-04-22T03:18:06;4.82;;;2.47;;
6651;SDS011;3362;50.892;10.692;2023-04-22T03:20:32;4.65;;;2.53;;
6651;SDS011;3362;50.892;10.692;2023-04-22T03:23:00;2.97;;;2.20;;
6651;SDS011;3362;50.892;10.692;2023-04-22T03:25:26;3.40;;;2.30;;
6651;SDS011;3362;50.892;10.692;2023-04-22T03:27:52;4.82;;;2.58;;
6651;SDS011;3362;50.892;10.692;2023-04-22T03:30:18;6.20;;;2.40;;
6651;SDS011;3362;50.892;10.692;2023-04-22T03:32:45;3.47;;;2.15;;
6651;SDS011;3362;50.892;10.692;2023-04-22T03:35:11;2.97;;;2.03;;
6651;SDS011;3362;50.892;10.692;2023-04-22T03:37:37;8.23;;;2.58;;
6651;SDS011;3362;50.892;10.692;2023-04-22T03:40:06;3.92;;;2.90;;
6651;SDS011;3362;50.892;10.692;2023-04-22T03:42:32;3.35;;;2.10;;
6651;SDS011;3362;50.892;10.692;2023-04-22T03:44:59;4.15;;;2.75;;
6651;SDS011;3362;50.892;10.692;2023-04-22T03:47:25;4.15;;;1.92;;
6651;SDS011;3362;50.892;10.692;2023-04-22T03:49:51;4.30;;;2.30;;
6651;SDS011;3362;50.892;10.692;2023-04-22T03:52:17;7.40;;;2.40;;
6651;SDS011;3362;50.892;10.692;2023-04-22T03:54:43;4.45;;;2.03;;
6651;SDS011;3362;50.892;10.692;2023-04-22T03:57:11;4.38;;;2.88;;
6651;SDS011;3362;50.892;10.692;2023-04-22T03:59:37;4.30;;;2.30;;
6651;SDS011;3362;50.892;10.692;2023-04-22T04:02:03;2.83;;;2.08;;
6651;SDS011;3362;50.892;10.692;2023-04-22T04:04:31;5.28;;;2.78;;
6651;SDS011;3362;50.892;10.692;2023-04-22T04:06:58;4.88;;;2.15;;
6651;SDS011;3362;50.892;10.692;2023-04-22T04:09:24;3.72;;;2.22;;
6651;SDS011;3362;50.892;10.692;2023-04-22T04:11:51;4.63;;;2.42;;
6651;SDS011;3362;50.892;10.692;2023-04-22T04:14:18;7.38;;;2.28;;
6651;SDS011;3362;50.892;10.692;2023-04-22T04:16:44;3.40;;;2.00;;
6651;SDS011;3362;50.892;10.692;2023-04-22T04:19:11;3.45;;;2.28;;
6651;SDS011;3362;50.892;10.692;2023-04-22T04:21:37;7.13;;;2.33;;
6651;SDS011;3362;50.892;10.692;2023-04-22T04:24:04;3.67;;;1.80;;
6651;SDS011;3362;50.892;10.692;2023-04-22T04:26:30;3.80;;;2.60;;
6651;SDS011;3362;50.892;10.692;2023-04-22T04:28:57;3.28;;;2.25;;
6651;SDS011;3362;50.892;10.692;2023-04-22T04:31:26;3.75;;;2.33;;
6651;SDS011;3362;50.892;10.692;2023-04-22T04:33:53;3.70;;;2.13;;
6651;SDS011;3362;50.892;10.692;2023-04-22T04:36:21;3.20;;;2.13;;
6651;SDS011;3362;50.892;10.692;2023-04-22T04:38:49;5.43;;;1.95;;
6651;SDS011;3362;50.892;10.692;2023-04-22T04:41:16;2.70;;;2.08;;
6651;SDS011;3362;50.892;10.692;2023-04-22T04:43:45;6.22;;;2.10;;
6651;SDS011;3362;50.892;10.692;2023-04-22T04:46:11;4.00;;;2.38;;
6651;SDS011;3362;50.892;10.692;2023-04-22T04:48:39;6.05;;;2.20;;
6651;SDS011;3362;50.892;10.692;2023-04-22T04:51:06;4.22;;;2.70;;
6651;SDS011;3362;50.892;10.692;2023-04-22T04:53:32;5.55;;;2.75;;
6651;SDS011;3362;50.892;10.692;2023-04-22T04:55:59;5.70;;;2.38;;
6651;SDS011;3362;50.892;10.692;2023-04-22T04:58:25;3.65;;;2.72;;
6651;SDS011;3362;50.892;10.692;2023-04-22T05:00:51;7.72;;;2.88;;
6651;SDS011;3362;50.892;10.692;2023-04-22T05:03:17;4.10;;;2.38;;
6651;SDS011;3362;50.892;10.692;2023-04-22T05:05:45;4.03;;;2.63;;
6651;SDS011;3362;50.892;10.692;2023-04-22T05:08:12;10.13;;;2.83;;
6651;SDS011;3362;50.892;10.692;2023-04-22T05:10:39;5.53;;;3.17;;
6651;SDS011;3362;50.892;10.692;2023-04-22T05:13:06;5.20;;;3.00;;
6651;SDS011;3362;50.892;10.692;2023-04-22T05:15:32;4.78;;;2.92;;
6651;SDS011;3362;50.892;10.692;2023-04-22T05:17:58;6.38;;;2.80;;
6651;SDS011;3362;50.892;10.692;2023-04-22T05:20:25;5.07;;;2.40;;
6651;SDS011;3362;50.892;10.692;2023-04-22T05:22:52;5.50;;;2.75;;
6651;SDS011;3362;50.892;10.692;2023-04-22T05:25:18;5.32;;;2.60;;
6651;SDS011;3362;50.892;10.692;2023-04-22T05:27:44;10.15;;;4.20;;
6651;SDS011;3362;50.892;10.692;2023-04-22T05:30:11;6.20;;;2.72;;
6651;SDS011;3362;50.892;10.692;2023-04-22T05:32:37;6.93;;;2.97;;
6651;SDS011;3362;50.892;10.692;2023-04-22T05:35:03;6.70;;;3.10;;
6651;SDS011;3362;50.892;10.692;2023-04-22T05:37:30;4.07;;;2.58;;
6651;SDS011;3362;50.892;10.692;2023-04-22T05:39:57;5.28;;;2.40;;
6651;SDS011;3362;50.892;10.692;2023-04-22T05:42:24;10.43;;;2.92;;
6651;SDS011;3362;50.892;10.692;2023-04-22T05:44:50;7.25;;;2.38;;
6651;SDS011;3362;50.892;10.692;2023-04-22T05:47:16;4.03;;;2.47;;
6651;SDS011;3362;50.892;10.692;2023-04-22T05:49:42;4.80;;;2.65;;
6651;SDS011;3362;50.892;10.692;2023-04-22T05:52:08;6.93;;;2.63;;
6651;SDS011;3362;50.892;10.692;2023-04-22T05:54:35;6.30;;;2.42;;
6651;SDS011;3362;50.892;10.692;2023-04-22T05:57:02;4.05;;;2.40;;
6651;SDS011;3362;50.892;10.692;2023-04-22T05:59:28;6.30;;;2.78;;
6651;SDS011;3362;50.892;10.692;2023-04-22T06:01:54;4.20;;;2.72;;
6651;SDS011;3362;50.892;10.692;2023-04-22T06:04:21;3.70;;;2.58;;
6651;SDS011;3362;50.892;10.692;2023-04-22T06:06:47;12.80;;;2.83;;
6651;SDS011;3362;50.892;10.692;2023-04-22T06:09:13;4.85;;;3.47;;
6651;SDS011;3362;50.892;10.692;2023-04-22T06:11:40;5.50;;;2.90;;
6651;SDS011;3362;50.892;10.692;2023-04-22T06:14:07;4.88;;;2.60;;
6651;SDS011;3362;50.892;10.692;2023-04-22T06:16:33;4.43;;;2.53;;
6651;SDS011;3362;50.892;10.692;2023-04-22T06:19:00;9.13;;;2.90;;
6651;SDS011;3362;50.892;10.692;2023-04-22T06:21:26;6.82;;;2.90;;
6651;SDS011;3362;50.892;10.692;2023-04-22T06:23:52;5.70;;;2.63;;
6651;SDS011;3362;50.892;10.692;2023-04-22T06:26:18;6.88;;;2.40;;
6651;SDS011;3362;50.892;10.692;2023-04-22T06:28:44;3.22;;;2.05;;
6651;SDS011;3362;50.892;10.692;2023-04-22T06:31:12;5.03;;;2.22;;
6651;SDS011;3362;50.892;10.692;2023-04-22T06:33:38;5.40;;;3.20;;
6651;SDS011;3362;50.892;10.692;2023-04-22T06:36:05;5.38;;;2.75;;
6651;SDS011;3362;50.892;10.692;2023-04-22T06:38:31;7.25;;;2.90;;
6651;SDS011;3362;50.892;10.692;2023-04-22T06:40:57;4.55;;;2.80;;
6651;SDS011;3362;50.892;10.692;2023-04-22T06:43:23;4.00;;;2.72;;
6651;SDS011;3362;50.892;10.692;2023-04-22T06:45:50;5.13;;;3.28;;
6651;SDS011;3362;50.892;10.692;2023-04-22T06:48:17;17.30;;;3.45;;
6651;SDS011;3362;50.892;10.692;2023-04-22T06:50:43;3.42;;;2.83;;
6651;SDS011;3362;50.892;10.692;2023-04-22T06:53:10;4.38;;;3.10;;
6651;SDS011;3362;50.892;10.692;2023-04-22T06:55:36;3.10;;;2.03;;
6651;SDS011;3362;50.892;10.692;2023-04-22T06:58:02;4.25;;;2.63;;
6651;SDS011;3362;50.892;10.692;2023-04-22T07:00:28;3.53;;;2.75;;
6651;SDS011;3362;50.892;10.692;2023-04-22T07:02:54;6.22;;;2.42;;
6651;SDS011;3362;50.892;10.692;2023-04-22T07:05:22;5.35;;;2.47;;
6651;SDS011;3362;50.892;10.692;2023-04-22T07:07:48;3.72;;;2.10;;
6651;SDS011;3362;50.892;10.692;2023-04-22T07:10:15;2.45;;;2.10;;
6651;SDS011;3362;50.892;10.692;2023-04-22T07:12:41;4.10;;;2.17;;
6651;SDS011;3362;50.892;10.692;2023-04-22T07:15:09;3.45;;;1.75;;
6651;SDS011;3362;50.892;10.692;2023-04-22T07:17:35;5.05;;;2.08;;
6651;SDS011;3362;50.892;10.692;2023-04-22T07:20:01;2.85;;;2.15;;
6651;SDS011;3362;50.892;10.692;2023-04-22T07:22:29;4.65;;;1.80;;
6651;SDS011;3362;50.892;10.692;2023-04-22T07:24:55;5.22;;;2.85;;
6651;SDS011;3362;50.892;10.692;2023-04-22T07:27:21;2.88;;;1.90;;
6651;SDS011;3362;50.892;10.692;2023-04-22T07:29:47;2.45;;;1.60;;
6651;SDS011;3362;50.892;10.692;2023-04-22T07:32:14;2.45;;;1.50;;
6651;SDS011;3362;50.892;10.692;2023-04-22T07:34:40;3.05;;;1.50;;
6651;SDS011;3362;50.892;10.692;2023-04-22T07:37:06;3.25;;;1.90;;
6651;SDS011;3362;50.892;10.692;2023-04-22T07:39:34;2.45;;;1.83;;
6651;SDS011;3362;50.892;10.692;2023-04-22T07:42:00;2.50;;;1.73;;
6651;SDS011;3362;50.892;10.692;2023-04-22T07:44:27;2.10;;;1.27;;
6651;SDS011;3362;50.892;10.692;2023-04-22T07:46:53;6.53;;;2.20;;
6651;SDS011;3362;50.892;10.692;2023-04-22T07:49:19;3.47;;;1.33;;
6651;SDS011;3362;50.892;10.692;2023-04-22T07:51:46;6.70;;;1.73;;
6651;SDS011;3362;50.892;10.692;2023-04-22T07:54:12;1.50;;;1.30;;
6651;SDS011;3362;50.892;10.692;2023-04-22T07:56:39;2.30;;;1.30;;
6651;SDS011;3362;50.892;10.692;2023-04-22T07:59:05;2.50;;;1.35;;
6651;SDS011;3362;50.892;10.692;2023-04-22T08:01:32;3.30;;;1.70;;
6651;SDS011;3362;50.892;10.692;2023-04-22T08:03:58;3.10;;;1.42;;
6651;SDS011;3362;50.892;10.692;2023-04-22T08:06:24;3.92;;;1.42;;
6651;SDS011;3362;50.892;10.692;2023-04-22T08:08:52;3.40;;;1.60;;
6651;SDS011;3362;50.892;10.692;2023-04-22T08:11:18;2.10;;;1.90;;
6651;SDS011;3362;50.892;10.692;2023-04-22T08:13:45;2.03;;;1.42;;
6651;SDS011;3362;50.892;10.692;2023-04-22T08:16:12;2.92;;;1.52;;
6651;SDS011;3362;50.892;10.692;2023-04-22T08:18:38;4.85;;;1.30;;
6651;SDS011;3362;50.892;10.692;2023-04-22T08:21:04;3.53;;;1.40;;
6651;SDS011;3362;50.892;10.692;2023-04-22T08:23:30;2.15;;;1.65;;
6651;SDS011;3362;50.892;10.692;2023-04-22T08:25:57;2.95;;;1.70;;
6651;SDS011;3362;50.892;10.692;2023-04-22T08:28:23;4.55;;;1.38;;
6651;SDS011;3362;50.892;10.692;2023-04-22T08:30:51;3.38;;;1.40;;
6651;SDS011;3362;50.892;10.692;2023-04-22T08:33:17;3.05;;;1.35;;
6651;SDS011;3362;50.892;10.692;2023-04-22T08:35:43;5.85;;;1.35;;
6651;SDS011;3362;50.892;10.692;2023-04-22T08:38:09;3.03;;;1.67;;
6651;SDS011;3362;50.892;10.692;2023-04-22T08:40:37;2.35;;;1.40;;
6651;SDS011;3362;50.892;10.692;2023-04-22T08:43:05;1.70;;;1.25;;
6651;SDS011;3362;50.892;10.692;2023-04-22T08:45:31;4.15;;;1.27;;
6651;SDS011;3362;50.892;10.692;2023-04-22T08:47:59;3.97;;;1.20;;
6651;SDS011;3362;50.892;10.692;2023-04-22T08:50:27;1.92;;;1.42;;
6651;SDS011;3362;50.892;10.692;2023-04-22T08:52:54;2.05;;;1.30;;
6651;SDS011;3362;50.892;10.692;2023-04-22T08:55:20;1.67;;;1.40;;
6651;SDS011;3362;50.892;10.692;2023-04-22T08:57:46;5.22;;;1.60;;
6651;SDS011;3362;50.892;10.692;2023-04-22T09:00:13;2.30;;;1.48;;
6651;SDS011;3362;50.892;10.692;2023-04-22T09:02:39;4.10;;;1.60;;
6651;SDS011;3362;50.892;10.692;2023-04-22T09:05:10;2.33;;;1.27;;
6651;SDS011;3362;50.892;10.692;2023-04-22T09:07:38;2.75;;;1.33;;
6651;SDS011;3362;50.892;10.692;2023-04-22T09:10:05;2.28;;;1.55;;
6651;SDS011;3362;50.892;10.692;2023-04-22T09:12:32;1.80;;;1.30;;
6651;SDS011;3362;50.892;10.692;2023-04-22T09:14:58;1.98;;;1.45;;
6651;SDS011;3362;50.892;10.692;2023-04-22T09:17:31;1.45;;;1.33;;
6651;SDS011;3362;50.892;10.692;2023-04-22T09:19:57;1.33;;;1.20;;
6651;SDS011;3362;50.892;10.692;2023-04-22T09:22:26;1.80;;;1.40;;
6651;SDS011;3362;50.892;10.692;2023-04-22T09:24:52;3.75;;;1.45;;
6651;SDS011;3362;50.892;10.692;2023-04-22T09:27:18;1.50;;;1.40;;
6651;SDS011;3362;50.892;10.692;2023-04-22T09:29:46;3.47;;;1.10;;
6651;SDS011;3362;50.892;10.692;2023-04-22T09:32:13;1.67;;;1.30;;
6651;SDS011;3362;50.892;10.692;2023-04-22T09:34:48;4.50;;;1.70;;
6651;SDS011;3362;50.892;10.692;2023-04-22T09:37:17;2.05;;;1.50;;
6651;SDS011;3362;50.892;10.692;2023-04-22T09:39:45;2.05;;;1.20;;
6651;SDS011;3362;50.892;10.692;2023-04-22T09:42:12;1.77;;;1.23;;
6651;SDS011;3362;50.892;10.692;2023-04-22T09:44:39;2.42;;;0.95;;
6651;SDS011;3362;50.892;10.692;2023-04-22T09:47:05;3.40;;;1.05;;
6651;SDS011;3362;50.892;10.692;2023-04-22T09:49:35;2.65;;;1.27;;
6651;SDS011;3362;50.892;10.692;2023-04-22T09:52:01;1.95;;;1.33;;
6651;SDS011;3362;50.892;10.692;2023-04-22T09:54:27;1.50;;;1.08;;
6651;SDS011;3362;50.892;10.692;2023-04-22T09:56:55;1.27;;;1.17;;
6651;SDS011;3362;50.892;10.692;2023-04-22T09:59:21;1.33;;;1.23;;
6651;SDS011;3362;50.892;10.692;2023-04-22T10:01:48;1.38;;;1.20;;
6651;SDS011;3362;50.892;10.692;2023-04-22T10:04:14;1.25;;;0.85;;
6651;SDS011;3362;50.892;10.692;2023-04-22T10:06:45;1.52;;;1.02;;
6651;SDS011;3362;50.892;10.692;2023-04-22T10:09:11;1.25;;;1.08;;
6651;SDS011;3362;50.892;10.692;2023-04-22T10:11:37;1.15;;;1.05;;
6651;SDS011;3362;50.892;10.692;2023-04-22T10:14:06;1.85;;;1.20;;
6651;SDS011;3362;50.892;10.692;2023-04-22T10:16:34;1.17;;;0.95;;
6651;SDS011;3362;50.892;10.692;2023-04-22T10:19:01;1.80;;;1.10;;
6651;SDS011;3362;50.892;10.692;2023-04-22T10:21:29;0.77;;;0.77;;
6651;SDS011;3362;50.892;10.692;2023-04-22T10:23:56;7.20;;;1.30;;
6651;SDS011;3362;50.892;10.692;2023-04-22T10:26:38;1.45;;;1.35;;
6651;SDS011;3362;50.892;10.692;2023-04-22T10:29:06;5.70;;;1.00;;
6651;SDS011;3362;50.892;10.692;2023-04-22T10:31:33;1.17;;;1.05;;
6651;SDS011;3362;50.892;10.692;2023-04-22T10:34:08;1.30;;;1.10;;
6651;SDS011;3362;50.892;10.692;2023-04-22T10:36:49;1.42;;;0.90;;
6651;SDS011;3362;50.892;10.692;2023-04-22T10:39:17;2.15;;;1.05;;
6651;SDS011;3362;50.892;10.692;2023-04-22T10:41:49;1.17;;;1.08;;
6651;SDS011;3362;50.892;10.692;2023-04-22T10:44:17;0.80;;;0.80;;
6651;SDS011;3362;50.892;10.692;2023-04-22T10:46:57;1.50;;;0.90;;
6651;SDS011;3362;50.892;10.692;2023-04-22T10:49:24;1.60;;;0.90;;
6651;SDS011;3362;50.892;10.692;2023-04-22T10:51:51;0.60;;;0.60;;
6651;SDS011;3362;50.892;10.692;2023-04-22T10:57:05;1.88;;;0.85;;
6651;SDS011;3362;50.892;10.692;2023-04-22T10:59:34;1.15;;;0.80;;
6651;SDS011;3362;50.892;10.692;2023-04-22T11:02:00;0.70;;;0.70;;
6651;SDS011;3362;50.892;10.692;2023-04-22T11:04:26;0.95;;;0.73;;
6651;SDS011;3362;50.892;10.692;2023-04-22T11:09:37;3.75;;;1.17;;
6651;SDS011;3362;50.892;10.692;2023-04-22T11:14:50;1.00;;;0.90;;
6651;SDS011;3362;50.892;10.692;2023-04-22T11:17:17;0.98;;;0.95;;
6651;SDS011;3362;50.892;10.692;2023-04-22T11:19:45;0.60;;;0.60;;
6651;SDS011;3362;50.892;10.692;2023-04-22T11:22:11;2.90;;;1.20;;
6651;SDS011;3362;50.892;10.692;2023-04-22T11:24:38;1.83;;;0.98;;
6651;SDS011;3362;50.892;10.692;2023-04-22T11:27:04;1.33;;;1.23;;
6651;SDS011;3362;50.892;10.692;2023-04-22T11:29:31;1.83;;;0.70;;
6651;SDS011;3362;50.892;10.692;2023-04-22T11:31:58;4.80;;;1.10;;
6651;SDS011;3362;50.892;10.692;2023-04-22T11:34:24;1.45;;;0.80;;
6651;SDS011;3362;50.892;10.692;2023-04-22T11:36:51;1.25;;;0.98;;
6651;SDS011;3362;50.892;10.692;2023-04-22T11:39:17;2.35;;;1.27;;
6651;SDS011;3362;50.892;10.692;2023-04-22T11:41:43;1.00;;;0.90;;
6651;SDS011;3362;50.892;10.692;2023-04-22T11:44:12;1.08;;;0.80;;
6651;SDS011;3362;50.892;10.692;2023-04-22T11:46:38;1.20;;;0.93;;
6651;SDS011;3362;50.892;10.692;2023-04-22T11:49:12;5.57;;;1.13;;
6651;SDS011;3362;50.892;10.692;2023-04-22T11:51:50;0.98;;;0.77;;
6651;SDS011;3362;50.892;10.692;2023-04-22T11:54:16;2.03;;;0.80;;
6651;SDS011;3362;50.892;10.692;2023-04-22T11:56:42;2.38;;;0.90;;
6651;SDS011;3362;50.892;10.692;2023-04-22T11:59:08;1.33;;;1.23;;
6651;SDS011;3362;50.892;10.692;2023-04-22T12:01:35;2.45;;;1.10;;
6651;SDS011;3362;50.892;10.692;2023-04-22T12:04:01;4.28;;;0.95;;
6651;SDS011;3362;50.892;10.692;2023-04-22T12:06:29;2.85;;;0.95;;
6651;SDS011;3362;50.892;10.692;2023-04-22T12:08:56;1.83;;;0.63;;
6651;SDS011;3362;50.892;10.692;2023-04-22T12:11:26;1.33;;;0.82;;
6651;SDS011;3362;50.892;10.692;2023-04-22T12:13:52;1.50;;;0.80;;
6651;SDS011;3362;50.892;10.692;2023-04-22T12:16:19;0.88;;;0.52;;
6651;SDS011;3362;50.892;10.692;2023-04-22T12:18:49;0.73;;;0.70;;
6651;SDS011;3362;50.892;10.692;2023-04-22T12:21:16;0.70;;;0.65;;
6651;SDS011;3362;50.892;10.692;2023-04-22T12:23:44;2.15;;;0.90;;
6651;SDS011;3362;50.892;10.692;2023-04-22T12:26:12;0.85;;;0.85;;
6651;SDS011;3362;50.892;10.692;2023-04-22T12:28:39;0.82;;;0.70;;
6651;SDS011;3362;50.892;10.692;2023-04-22T12:31:05;0.90;;;0.80;;
6651;SDS011;3362;50.892;10.692;2023-04-22T12:33:32;1.08;;;0.60;;
6651;SDS011;3362;50.892;10.692;2023-04-22T12:35:58;0.75;;;0.75;;
6651;SDS011;3362;50.892;10.692;2023-04-22T12:38:24;4.68;;;1.10;;
6651;SDS011;3362;50.892;10.692;2023-04-22T12:40:52;1.60;;;0.95;;
6651;SDS011;3362;50.892;10.692;2023-04-22T12:43:18;0.65;;;0.65;;
6651;SDS011;3362;50.892;10.692;2023-04-22T12:45:44;0.77;;;0.77;;
6651;SDS011;3362;50.892;10.692;2023-04-22T12:48:11;1.00;;;0.75;;
6651;SDS011;3362;50.892;10.692;2023-04-22T12:50:37;1.25;;;0.82;;
6651;SDS011;3362;50.892;10.692;2023-04-22T12:53:03;5.35;;;1.13;;
6651;SDS011;3362;50.892;10.692;2023-04-22T12:55:29;1.33;;;1.02;;
6651;SDS011;3362;50.892;10.692;2023-04-22T12:57:57;1.08;;;0.85;;
6651;SDS011;3362;50.892;10.692;2023-04-22T13:00:23;1.10;;;1.00;;
6651;SDS011;3362;50.892;10.692;2023-04-22T13:02:49;2.70;;;1.10;;
6651;SDS011;3362;50.892;10.692;2023-04-22T13:05:16;0.93;;;0.82;;
6651;SDS011;3362;50.892;10.692;2023-04-22T13:07:43;1.40;;;1.00;;
6651;SDS011;3362;50.892;10.692;2023-04-22T13:10:10;3.67;;;1.15;;
6651;SDS011;3362;50.892;10.692;2023-04-22T13:12:36;0.95;;;0.93;;
6651;SDS011;3362;50.892;10.692;2023-04-22T13:15:04;2.55;;;1.13;;
6651;SDS011;3362;50.892;10.692;2023-04-22T13:17:31;2.78;;;1.20;;
6651;SDS011;3362;50.892;10.692;2023-04-22T13:19:57;2.00;;;0.93;;
6651;SDS011;3362;50.892;10.692;2023-04-22T13:22:23;0.90;;;0.90;;
6651;SDS011;3362;50.892;10.692;2023-04-22T13:24:49;2.17;;;1.00;;
6651;SDS011;3362;50.892;10.692;2023-04-22T13:27:16;2.97;;;1.00;;
6651;SDS011;3362;50.892;10.692;2023-04-22T13:29:42;0.98;;;0.90;;
6651;SDS011;3362;50.892;10.692;2023-04-22T13:32:10;4.18;;;1.85;;
6651;SDS011;3362;50.892;10.692;2023-04-22T13:34:37;2.38;;;1.20;;
6651;SDS011;3362;50.892;10.692;2023-04-22T13:37:03;1.35;;;0.90;;
6651;SDS011;3362;50.892;10.692;2023-04-22T13:39:29;2.13;;;1.27;;
6651;SDS011;3362;50.892;10.692;2023-04-22T13:41:56;2.35;;;1.17;;
6651;SDS011;3362;50.892;10.692;2023-04-22T13:44:22;2.17;;;1.20;;
6651;SDS011;3362;50.892;10.692;2023-04-22T13:46:48;1.92;;;1.40;;
6651;SDS011;3362;50.892;10.692;2023-04-22T13:49:16;1.80;;;1.30;;
6651;SDS011;3362;50.892;10.692;2023-04-22T13:51:42;1.33;;;1.08;;
6651;SDS011;3362;50.892;10.692;2023-04-22T13:54:08;8.63;;;1.35;;
6651;SDS011;3362;50.892;10.692;2023-04-22T13:56:35;1.17;;;1.08;;
6651;SDS011;3362;50.892;10.692;2023-04-22T13:59:01;1.42;;;1.20;;
6651;SDS011;3362;50.892;10.692;2023-04-22T14:01:27;1.20;;;1.10;;
6651;SDS011;3362;50.892;10.692;2023-04-22T14:03:54;3.03;;;0.90;;
6651;SDS011;3362;50.892;10.692;2023-04-22T14:06:21;1.40;;;0.93;;
6651;SDS011;3362;50.892;10.692;2023-04-22T14:08:47;1.10;;;1.00;;
6651;SDS011;3362;50.892;10.692;2023-04-22T14:11:13;4.88;;;1.00;;
6651;SDS011;3362;50.892;10.692;2023-04-22T14:13:40;16.38;;;1.65;;
6651;SDS011;3362;50.892;10.692;2023-04-22T14:16:06;1.50;;;1.10;;
6651;SDS011;3362;50.892;10.692;2023-04-22T14:18:34;2.90;;;0.95;;
6651;SDS011;3362;50.892;10.692;2023-04-22T14:21:01;1.25;;;1.02;;
6651;SDS011;3362;50.892;10.692;2023-04-22T14:23:29;2.55;;;1.00;;
6651;SDS011;3362;50.892;10.692;2023-04-22T14:25:55;1.50;;;1.05;;
6651;SDS011;3362;50.892;10.692;2023-04-22T14:28:21;1.60;;;1.20;;
6651;SDS011;3362;50.892;10.692;2023-04-22T14:30:47;4.68;;;1.10;;
6651;SDS011;3362;50.892;10.692;2023-04-22T14:33:13;1.67;;;1.02;;
6651;SDS011;3362;50.892;10.692;2023-04-22T14:35:40;1.20;;;1.10;;
6651;SDS011;3362;50.892;10.692;2023-04-22T14:38:07;1.20;;;1.00;;
6651;SDS011;3362;50.892;10.692;2023-04-22T14:40:35;2.42;;;1.10;;
6651;SDS011;3362;50.892;10.692;2023-04-22T14:43:02;1.85;;;1.10;;
6651;SDS011;3362;50.892;10.692;2023-04-22T14:45:29;1.73;;;1.13;;
6651;SDS011;3362;50.892;10.692;2023-04-22T14:47:55;2.45;;;1.23;;
6651;SDS011;3362;50.892;10.692;2023-04-22T14:50:21;2.00;;;1.58;;
6651;SDS011;3362;50.892;10.692;2023-04-22T14:52:48;1.95;;;1.17;;
6651;SDS011;3362;50.892;10.692;2023-04-22T14:55:14;9.57;;;1.10;;
6651;SDS011;3362;50.892;10.692;2023-04-22T14:57:41;2.85;;;1.17;;
6651;SDS011;3362;50.892;10.692;2023-04-22T15:00:08;2.42;;;0.80;;
6651;SDS011;3362;50.892;10.692;2023-04-22T15:02:34;1.75;;;1.17;;
6651;SDS011;3362;50.892;10.692;2023-04-22T15:05:00;2.47;;;1.10;;